createdAt,value
2017-08-21T00:00:29.938Z,12.74
2017-08-21T00:01:39.794Z,12.75
2017-08-21T00:02:49.003Z,12.9
2017-08-21T00:03:58.865Z,12.95
2017-08-21T00:05:09.141Z,12.87
2017-08-21T00:06:18.026Z,12.78
2017-08-21T00:07:27.882Z,13
2017-08-21T00:08:37.404Z,12.82
2017-08-21T00:09:46.608Z,12.89
2017-08-21T00:10:56.287Z,12.92
2017-08-21T00:12:05.495Z,12.85
2017-08-21T00:13:15.369Z,13.03
2017-08-21T00:14:24.902Z,12.93
2017-08-21T00:15:34.104Z,12.95
2017-08-21T00:16:43.680Z,12.85
2017-08-21T00:17:52.566Z,12.86
2017-08-21T00:19:02.421Z,12.83
2017-08-21T00:20:12.270Z,12.93
2017-08-21T00:21:21.807Z,12.86
2017-08-21T00:22:31.048Z,12.95
2017-08-21T00:23:40.900Z,12.93
2017-08-21T00:24:50.432Z,12.89
2017-08-21T00:25:59.959Z,12.92
2017-08-21T00:27:09.809Z,13
2017-08-21T00:28:19.124Z,12.96
2017-08-21T00:29:29.299Z,13.32
2017-08-21T00:30:38.505Z,13.05
2017-08-21T00:31:47.715Z,13.05
2017-08-21T00:32:57.242Z,12.95
2017-08-21T00:34:07.085Z,12.95
2017-08-21T00:35:16.941Z,13
2017-08-21T00:36:26.470Z,13.05
2017-08-21T00:37:35.698Z,13.08
2017-08-21T00:38:44.581Z,13.03
2017-08-21T00:39:54.116Z,13.05
2017-08-21T00:41:04.300Z,13.01
2017-08-21T00:42:14.159Z,13.04
2017-08-21T00:43:24.332Z,13.14
2017-08-21T00:44:33.862Z,13.14
2017-08-21T00:45:43.169Z,13.22
2017-08-21T00:46:52.696Z,13.33
2017-08-21T00:48:02.222Z,13.14
2017-08-21T00:49:11.749Z,13.08
2017-08-21T00:50:20.658Z,13.05
2017-08-21T00:51:30.516Z,13.12
2017-08-21T00:52:39.720Z,13.08
2017-08-21T00:53:48.930Z,13.01
2017-08-21T00:54:58.135Z,13.03
2017-08-21T00:56:07.660Z,13.11
2017-08-21T00:57:17.297Z,13.17
2017-08-21T00:58:26.215Z,13.36
2017-08-21T00:59:35.419Z,13.45
2017-08-21T01:00:44.946Z,13.22
2017-08-21T01:01:54.476Z,13.2
2017-08-21T01:03:03.837Z,13.03
2017-08-21T01:04:13.042Z,13.51
2017-08-21T01:05:22.248Z,13.45
2017-08-21T01:06:31.450Z,13.29
2017-08-21T01:07:40.983Z,13.46
2017-08-21T01:08:50.292Z,13.49
2017-08-21T01:09:59.832Z,13.45
2017-08-21T01:11:10.016Z,13.3
2017-08-21T01:12:19.876Z,13.3
2017-08-21T01:13:29.403Z,13.3
2017-08-21T01:14:38.657Z,13.3
2017-08-21T01:15:47.862Z,13.44
2017-08-21T01:16:57.073Z,13.41
2017-08-21T01:18:06.598Z,13.32
2017-08-21T01:19:16.181Z,13.49
2017-08-21T01:20:25.500Z,13.49
2017-08-21T01:21:34.705Z,13.49
2017-08-21T01:22:43.911Z,13.41
2017-08-21T01:23:53.435Z,13.33
2017-08-21T01:25:02.316Z,13.33
2017-08-21T01:26:11.993Z,13.36
2017-08-21T01:27:21.200Z,13.26
2017-08-21T01:28:31.081Z,13.2
2017-08-21T01:29:40.290Z,13.49
2017-08-21T01:30:49.497Z,13.46
2017-08-21T01:31:59.349Z,13.26
2017-08-21T01:33:08.568Z,13.15
2017-08-21T01:34:18.104Z,13.25
2017-08-21T01:35:27.328Z,13.12
2017-08-21T01:36:36.208Z,13.15
2017-08-21T01:37:45.565Z,13.05
2017-08-21T01:38:55.096Z,13.05
2017-08-21T01:40:04.629Z,13.11
2017-08-21T01:41:13.512Z,13.23
2017-08-21T01:42:23.360Z,13.03
2017-08-21T01:43:32.399Z,13.12
2017-08-21T01:44:41.931Z,13.03
2017-08-21T01:45:51.783Z,13.32
2017-08-21T01:47:00.987Z,13.19
2017-08-21T01:48:10.522Z,13.03
2017-08-21T01:49:20.207Z,12.97
2017-08-21T01:50:29.733Z,12.9
2017-08-21T01:51:38.939Z,13.05
2017-08-21T01:52:48.472Z,12.97
2017-08-21T01:53:57.998Z,12.95
2017-08-21T01:55:07.824Z,12.87
2017-08-21T01:56:17.032Z,12.82
2017-08-21T01:57:26.247Z,12.82
2017-08-21T01:58:35.452Z,12.89
2017-08-21T01:59:44.655Z,12.82
2017-08-21T02:00:54.232Z,12.83
2017-08-21T02:02:03.761Z,12.79
2017-08-21T02:03:12.966Z,12.89
2017-08-21T02:04:21.849Z,12.77
2017-08-21T02:05:30.737Z,12.7
2017-08-21T02:06:40.088Z,12.7
2017-08-21T02:07:49.291Z,12.67
2017-08-21T02:08:58.818Z,12.68
2017-08-21T02:10:08.991Z,12.54
2017-08-21T02:11:18.523Z,12.54
2017-08-21T02:12:27.780Z,12.62
2017-08-21T02:13:37.324Z,12.68
2017-08-21T02:14:46.543Z,12.6
2017-08-21T02:15:56.393Z,12.56
2017-08-21T02:17:05.277Z,12.56
2017-08-21T02:18:14.585Z,12.56
2017-08-21T02:19:23.478Z,12.62
2017-08-21T02:20:33.327Z,12.52
2017-08-21T02:21:42.537Z,12.49
2017-08-21T02:22:51.746Z,12.53
2017-08-21T02:24:01.325Z,12.56
2017-08-21T02:25:10.857Z,12.57
2017-08-21T02:26:20.393Z,12.53
2017-08-21T02:27:29.281Z,12.49
2017-08-21T02:28:38.486Z,12.46
2017-08-21T02:29:48.024Z,12.5
2017-08-21T02:30:57.888Z,12.49
2017-08-21T02:32:07.420Z,12.53
2017-08-21T02:33:17.271Z,12.54
2017-08-21T02:34:26.165Z,12.49
2017-08-21T02:35:35.844Z,12.49
2017-08-21T02:36:45.371Z,12.54
2017-08-21T02:37:54.588Z,12.57
2017-08-21T02:39:03.794Z,12.46
2017-08-21T02:40:13.351Z,12.49
2017-08-21T02:41:23.830Z,12.46
2017-08-21T02:42:33.367Z,12.47
2017-08-21T02:43:42.251Z,12.39
2017-08-21T02:44:51.460Z,12.39
2017-08-21T02:46:00.682Z,12.45
2017-08-21T02:47:10.363Z,12.42
2017-08-21T02:48:19.917Z,12.47
2017-08-21T02:49:29.125Z,12.39
2017-08-21T02:50:38.327Z,12.57
2017-08-21T02:51:47.539Z,12.45
2017-08-21T02:52:57.397Z,12.29
2017-08-21T02:54:06.924Z,12.72
2017-08-21T02:55:16.456Z,12.39
2017-08-21T02:56:25.663Z,12.21
2017-08-21T02:57:35.201Z,12.24
2017-08-21T02:58:44.463Z,12.2
2017-08-21T02:59:53.664Z,12.13
2017-08-21T03:01:02.866Z,12.17
2017-08-21T03:02:12.721Z,12.16
2017-08-21T03:03:21.931Z,12.17
2017-08-21T03:04:31.189Z,12.17
2017-08-21T03:05:40.717Z,12.17
2017-08-21T03:06:50.241Z,12.13
2017-08-21T03:07:59.446Z,12.2
2017-08-21T03:09:08.334Z,12.09
2017-08-21T03:10:18.345Z,12.17
2017-08-21T03:11:27.549Z,12.17
2017-08-21T03:12:37.077Z,12.2
2017-08-21T03:13:46.277Z,12.14
2017-08-21T03:14:55.477Z,12.14
2017-08-21T03:16:04.834Z,12.2
2017-08-21T03:17:14.367Z,12.19
2017-08-21T03:18:23.580Z,12.13
2017-08-21T03:19:32.787Z,12.19
2017-08-21T03:20:42.314Z,12.07
2017-08-21T03:21:51.671Z,12.07
2017-08-21T03:23:00.876Z,12.1
2017-08-21T03:24:10.410Z,12.09
2017-08-21T03:25:19.622Z,12.14
2017-08-21T03:26:28.501Z,12.12
2017-08-21T03:27:37.392Z,12.09
2017-08-21T03:28:47.241Z,12.07
2017-08-21T03:29:56.446Z,12.04
2017-08-21T03:31:06.302Z,12.1
2017-08-21T03:32:15.190Z,12.05
2017-08-21T03:33:24.876Z,12.1
2017-08-21T03:34:34.728Z,12.04
2017-08-21T03:35:44.577Z,12.01
2017-08-21T03:36:53.780Z,11.9
2017-08-21T03:38:03.304Z,12.17
2017-08-21T03:39:12.976Z,12.02
2017-08-21T03:40:22.181Z,11.94
2017-08-21T03:41:31.730Z,11.95
2017-08-21T03:42:40.610Z,11.91
2017-08-21T03:43:50.464Z,11.94
2017-08-21T03:45:00.787Z,11.86
2017-08-21T03:46:09.668Z,11.88
2017-08-21T03:47:19.519Z,11.83
2017-08-21T03:48:28.730Z,11.83
2017-08-21T03:49:38.584Z,11.76
2017-08-21T03:50:47.567Z,11.76
2017-08-21T03:51:56.446Z,11.8
2017-08-21T03:53:05.652Z,11.78
2017-08-21T03:54:14.855Z,11.75
2017-08-21T03:55:24.060Z,11.75
2017-08-21T03:56:32.949Z,11.79
2017-08-21T03:57:42.474Z,11.76
2017-08-21T03:58:51.684Z,11.78
2017-08-21T04:00:00.566Z,11.76
2017-08-21T04:01:10.114Z,11.75
2017-08-21T04:02:19.315Z,11.8
2017-08-21T04:03:28.520Z,11.75
2017-08-21T04:04:38.373Z,11.78
2017-08-21T04:05:47.583Z,11.78
2017-08-21T04:06:57.460Z,11.75
2017-08-21T04:08:06.811Z,11.78
2017-08-21T04:09:17.000Z,11.79
2017-08-21T04:10:25.881Z,11.72
2017-08-21T04:11:35.409Z,11.73
2017-08-21T04:12:45.582Z,12.05
2017-08-21T04:13:54.794Z,11.82
2017-08-21T04:15:04.966Z,11.78
2017-08-21T04:16:14.174Z,11.7
2017-08-21T04:17:23.374Z,11.65
2017-08-21T04:18:32.899Z,11.72
2017-08-21T04:19:42.625Z,11.72
2017-08-21T04:20:52.148Z,11.75
2017-08-21T04:22:01.673Z,11.69
2017-08-21T04:23:11.198Z,11.7
2017-08-21T04:24:20.728Z,11.7
2017-08-21T04:25:29.983Z,11.62
2017-08-21T04:26:39.531Z,11.8
2017-08-21T04:27:48.737Z,11.76
2017-08-21T04:28:58.270Z,11.7
2017-08-21T04:30:07.821Z,11.67
2017-08-21T04:31:16.950Z,11.69
2017-08-21T04:32:26.471Z,11.7
2017-08-21T04:33:35.993Z,11.76
2017-08-21T04:34:45.200Z,11.76
2017-08-21T04:35:54.404Z,11.83
2017-08-21T04:37:03.938Z,11.73
2017-08-21T04:38:13.138Z,11.82
2017-08-21T04:39:22.348Z,11.75
2017-08-21T04:40:31.552Z,11.75
2017-08-21T04:41:41.079Z,11.73
2017-08-21T04:42:50.352Z,11.78
2017-08-21T04:43:59.229Z,12.02
2017-08-21T04:45:08.755Z,12.02
2017-08-21T04:46:18.280Z,11.86
2017-08-21T04:47:27.480Z,11.96
2017-08-21T04:48:37.434Z,11.83
2017-08-21T04:49:46.637Z,11.82
2017-08-21T04:50:55.520Z,11.8
2017-08-21T04:52:05.046Z,11.76
2017-08-21T04:53:14.245Z,11.88
2017-08-21T04:54:23.780Z,11.85
2017-08-21T04:55:32.986Z,11.86
2017-08-21T04:56:42.191Z,11.88
2017-08-21T04:57:51.390Z,11.88
2017-08-21T04:59:00.591Z,11.95
2017-08-21T05:00:09.946Z,11.9
2017-08-21T05:01:19.797Z,12.02
2017-08-21T05:02:29.330Z,11.91
2017-08-21T05:03:38.854Z,11.86
2017-08-21T05:04:48.386Z,11.99
2017-08-21T05:05:57.275Z,11.99
2017-08-21T05:07:07.126Z,12.19
2017-08-21T05:08:16.657Z,12.13
2017-08-21T05:09:26.182Z,12.14
2017-08-21T05:10:35.704Z,12.12
2017-08-21T05:11:45.056Z,12.13
2017-08-21T05:12:54.594Z,12.07
2017-08-21T05:14:04.126Z,12.09
2017-08-21T05:15:13.334Z,12.1
2017-08-21T05:16:22.862Z,12.19
2017-08-21T05:17:32.881Z,12.16
2017-08-21T05:18:41.768Z,12.16
2017-08-21T05:19:51.297Z,12.16
2017-08-21T05:21:00.823Z,12.1
2017-08-21T05:22:10.369Z,12.16
2017-08-21T05:23:19.303Z,12.16
2017-08-21T05:24:28.836Z,12.16
2017-08-21T05:25:38.044Z,12.13
2017-08-21T05:26:46.925Z,12.17
2017-08-21T05:27:55.813Z,12.24
2017-08-21T05:29:05.355Z,12.19
2017-08-21T05:30:15.216Z,12.14
2017-08-21T05:31:24.743Z,12.2
2017-08-21T05:32:33.949Z,12.14
2017-08-21T05:33:43.803Z,12.14
2017-08-21T05:34:53.012Z,12.19
2017-08-21T05:36:02.867Z,12.12
2017-08-21T05:37:11.748Z,12.19
2017-08-21T05:38:21.276Z,12.31
2017-08-21T05:39:31.233Z,12.27
2017-08-21T05:40:40.460Z,12.28
2017-08-21T05:41:50.322Z,12.37
2017-08-21T05:42:59.870Z,12.39
2017-08-21T05:44:09.087Z,12.39
2017-08-21T05:45:19.261Z,12.39
2017-08-21T05:46:28.483Z,12.45
2017-08-21T05:47:37.378Z,12.42
2017-08-21T05:48:46.584Z,12.46
2017-08-21T05:49:56.115Z,12.41
2017-08-21T05:51:05.641Z,12.42
2017-08-21T05:52:15.169Z,12.49
2017-08-21T05:53:24.378Z,12.47
2017-08-21T05:54:34.056Z,12.53
2017-08-21T05:55:43.272Z,12.57
2017-08-21T05:56:52.477Z,12.54
2017-08-21T05:58:01.701Z,12.59
2017-08-21T05:59:11.554Z,12.65
2017-08-21T06:00:21.132Z,12.59
2017-08-21T06:01:30.339Z,12.71
2017-08-21T06:02:39.869Z,12.68
2017-08-21T06:03:49.403Z,12.79
2017-08-21T06:04:58.609Z,12.83
2017-08-21T06:06:08.235Z,12.74
2017-08-21T06:07:17.491Z,12.75
2017-08-21T06:08:27.047Z,12.74
2017-08-21T06:09:36.583Z,12.87
2017-08-21T06:10:45.795Z,12.83
2017-08-21T06:11:55.051Z,12.85
2017-08-21T06:13:04.579Z,12.89
2017-08-21T06:14:14.429Z,12.89
2017-08-21T06:15:24.282Z,12.9
2017-08-21T06:16:34.139Z,13.03
2017-08-21T06:17:43.497Z,13
2017-08-21T06:18:52.699Z,13.04
2017-08-21T06:20:01.904Z,13.01
2017-08-21T06:21:12.079Z,13.1
2017-08-21T06:22:21.288Z,13.04
2017-08-21T06:23:31.191Z,13.08
2017-08-21T06:24:40.718Z,13.14
2017-08-21T06:25:50.250Z,13.15
2017-08-21T06:26:59.456Z,13.32
2017-08-21T06:28:08.662Z,13.26
2017-08-21T06:29:18.385Z,13.26
2017-08-21T06:30:28.236Z,13.33
2017-08-21T06:31:37.765Z,13.28
2017-08-21T06:32:47.295Z,13.32
2017-08-21T06:33:57.158Z,13.38
2017-08-21T06:35:06.931Z,13.3
2017-08-21T06:36:16.466Z,13.51
2017-08-21T06:37:25.676Z,13.46
2017-08-21T06:38:35.202Z,13.51
2017-08-21T06:39:44.729Z,13.46
2017-08-21T06:40:54.248Z,13.52
2017-08-21T06:42:03.148Z,13.6
2017-08-21T06:43:12.681Z,13.41
2017-08-21T06:44:21.907Z,13.39
2017-08-21T06:45:31.116Z,13.51
2017-08-21T06:46:40.145Z,13.49
2017-08-21T06:47:49.385Z,13.55
2017-08-21T06:48:58.930Z,13.63
2017-08-21T06:50:08.459Z,13.59
2017-08-21T06:51:17.986Z,13.52
2017-08-21T06:52:26.965Z,13.67
2017-08-21T06:53:36.169Z,13.69
2017-08-21T06:54:45.700Z,13.66
2017-08-21T06:55:55.553Z,13.77
2017-08-21T06:57:05.090Z,13.77
2017-08-21T06:58:14.641Z,13.71
2017-08-21T06:59:23.849Z,13.78
2017-08-21T07:00:33.379Z,13.85
2017-08-21T07:01:42.259Z,13.92
2017-08-21T07:02:52.116Z,13.96
2017-08-21T07:04:01.796Z,13.99
2017-08-21T07:05:11.651Z,14.02
2017-08-21T07:06:20.855Z,14
2017-08-21T07:07:29.742Z,14.09
2017-08-21T07:08:39.276Z,14
2017-08-21T07:09:48.553Z,14.18
2017-08-21T07:10:58.095Z,14.14
2017-08-21T07:12:07.949Z,14.12
2017-08-21T07:13:17.164Z,14.18
2017-08-21T07:14:26.370Z,14.22
2017-08-21T07:15:36.543Z,14.15
2017-08-21T07:16:46.396Z,14.25
2017-08-21T07:17:55.959Z,14.29
2017-08-21T07:19:05.489Z,14.22
2017-08-21T07:20:15.019Z,14.33
2017-08-21T07:21:25.176Z,14.33
2017-08-21T07:22:35.036Z,14.29
2017-08-21T07:23:44.239Z,14.32
2017-08-21T07:24:53.450Z,14.33
2017-08-21T07:26:02.350Z,14.39
2017-08-21T07:27:11.727Z,14.45
2017-08-21T07:28:20.931Z,14.51
2017-08-21T07:29:30.466Z,14.45
2017-08-21T07:30:39.999Z,14.52
2017-08-21T07:31:49.528Z,14.6
2017-08-21T07:32:59.058Z,14.57
2017-08-21T07:34:08.588Z,14.51
2017-08-21T07:35:17.850Z,14.68
2017-08-21T07:36:27.085Z,14.61
2017-08-21T07:37:35.970Z,14.65
2017-08-21T07:38:44.849Z,14.83
2017-08-21T07:39:54.053Z,14.89
2017-08-21T07:41:03.911Z,14.94
2017-08-21T07:42:13.441Z,15.07
2017-08-21T07:43:22.366Z,15.07
2017-08-21T07:44:31.980Z,15.14
2017-08-21T07:45:41.189Z,15.29
2017-08-21T07:46:51.373Z,15.28
2017-08-21T07:48:00.911Z,15.21
2017-08-21T07:49:10.764Z,15.28
2017-08-21T07:50:20.663Z,15.32
2017-08-21T07:51:30.199Z,15.28
2017-08-21T07:52:39.728Z,15.29
2017-08-21T07:53:49.264Z,15.31
2017-08-21T07:54:58.469Z,15.38
2017-08-21T07:56:07.836Z,15.44
2017-08-21T07:57:17.689Z,15.38
2017-08-21T07:58:26.898Z,15.38
2017-08-21T07:59:37.107Z,15.36
2017-08-21T08:00:45.994Z,15.49
2017-08-21T08:01:55.202Z,15.43
2017-08-21T08:03:04.406Z,15.53
2017-08-21T08:04:13.612Z,15.6
2017-08-21T08:05:23.149Z,15.67
2017-08-21T08:06:32.377Z,15.62
2017-08-21T08:07:41.964Z,15.62
2017-08-21T08:08:51.177Z,15.65
2017-08-21T08:10:00.708Z,15.71
2017-08-21T08:11:10.239Z,15.65
2017-08-21T08:12:19.770Z,15.69
2017-08-21T08:13:29.031Z,15.67
2017-08-21T08:14:38.567Z,15.67
2017-08-21T08:15:48.092Z,15.72
2017-08-21T08:16:56.977Z,15.75
2017-08-21T08:18:06.506Z,15.67
2017-08-21T08:19:15.543Z,15.67
2017-08-21T08:20:24.761Z,15.8
2017-08-21T08:21:34.617Z,15.83
2017-08-21T08:22:43.859Z,15.82
2017-08-21T08:23:52.751Z,15.8
2017-08-21T08:25:02.328Z,15.83
2017-08-21T08:26:11.862Z,15.89
2017-08-21T08:27:21.068Z,15.82
2017-08-21T08:28:30.921Z,15.9
2017-08-21T08:29:40.147Z,15.94
2017-08-21T08:30:50.149Z,15.96
2017-08-21T08:32:00.338Z,15.96
2017-08-21T08:33:10.193Z,15.92
2017-08-21T08:34:20.060Z,15.97
2017-08-21T08:35:29.270Z,16.02
2017-08-21T08:36:38.601Z,16.05
2017-08-21T08:37:47.816Z,15.97
2017-08-21T08:38:57.346Z,16.01
2017-08-21T08:40:06.889Z,16.07
2017-08-21T08:41:16.099Z,16.14
2017-08-21T08:42:25.743Z,16.14
2017-08-21T08:43:35.596Z,16.14
2017-08-21T08:44:44.801Z,16.12
2017-08-21T08:45:54.008Z,16.08
2017-08-21T08:47:03.860Z,16.14
2017-08-21T08:48:13.724Z,16.15
2017-08-21T08:49:23.582Z,16.24
2017-08-21T08:50:33.779Z,16.24
2017-08-21T08:51:43.322Z,16.23
2017-08-21T08:52:52.856Z,16.25
2017-08-21T08:54:02.220Z,16.27
2017-08-21T08:55:11.757Z,16.31
2017-08-21T08:56:21.610Z,16.34
2017-08-21T08:57:31.472Z,16.3
2017-08-21T08:58:41.000Z,16.39
2017-08-21T08:59:50.580Z,16.48
2017-08-21T09:01:00.118Z,16.48
2017-08-21T09:02:09.990Z,16.49
2017-08-21T09:03:20.168Z,16.53
2017-08-21T09:04:29.377Z,16.7
2017-08-21T09:05:39.389Z,16.73
2017-08-21T09:06:49.248Z,16.68
2017-08-21T09:07:58.476Z,16.71
2017-08-21T09:09:07.682Z,16.68
2017-08-21T09:10:17.861Z,16.78
2017-08-21T09:11:28.020Z,16.71
2017-08-21T09:12:37.877Z,16.75
2017-08-21T09:13:48.058Z,16.81
2017-08-21T09:14:57.593Z,16.83
2017-08-21T09:16:07.127Z,16.78
2017-08-21T09:17:16.338Z,16.88
2017-08-21T09:18:25.870Z,16.97
2017-08-21T09:19:35.403Z,17.01
2017-08-21T09:20:45.586Z,16.94
2017-08-21T09:21:55.120Z,17.04
2017-08-21T09:23:04.361Z,17.04
2017-08-21T09:24:14.237Z,17.03
2017-08-21T09:25:24.096Z,16.91
2017-08-21T09:26:32.982Z,16.89
2017-08-21T09:27:42.553Z,16.88
2017-08-21T09:28:51.861Z,16.82
2017-08-21T09:30:02.047Z,16.83
2017-08-21T09:31:11.588Z,16.86
2017-08-21T09:32:20.799Z,16.88
2017-08-21T09:33:30.652Z,16.91
2017-08-21T09:34:40.498Z,16.89
2017-08-21T09:35:50.687Z,16.94
2017-08-21T09:36:59.899Z,16.91
2017-08-21T09:38:10.083Z,16.93
2017-08-21T09:39:19.615Z,16.98
2017-08-21T09:40:28.995Z,17.06
2017-08-21T09:41:38.207Z,17.07
2017-08-21T09:42:47.413Z,17.12
2017-08-21T09:43:56.947Z,17.14
2017-08-21T09:45:06.491Z,17.12
2017-08-21T09:46:15.426Z,17.28
2017-08-21T09:47:25.283Z,17.3
2017-08-21T09:48:34.820Z,17.26
2017-08-21T09:49:44.355Z,17.3
2017-08-21T09:50:53.891Z,17.3
2017-08-21T09:52:03.147Z,17.68
2017-08-21T09:53:12.036Z,17.63
2017-08-21T09:54:21.244Z,17.54
2017-08-21T09:55:30.134Z,17.62
2017-08-21T09:56:39.345Z,17.46
2017-08-21T09:57:48.705Z,17.44
2017-08-21T09:58:58.240Z,17.58
2017-08-21T10:00:07.124Z,17.55
2017-08-21T10:01:16.333Z,17.54
2017-08-21T10:02:25.546Z,17.41
2017-08-21T10:03:35.477Z,17.44
2017-08-21T10:04:45.333Z,17.58
2017-08-21T10:05:54.887Z,17.49
2017-08-21T10:07:03.777Z,17.55
2017-08-21T10:08:13.636Z,17.59
2017-08-21T10:09:22.993Z,17.55
2017-08-21T10:10:32.530Z,17.62
2017-08-21T10:11:41.736Z,17.64
2017-08-21T10:12:51.593Z,17.66
2017-08-21T10:14:00.806Z,17.86
2017-08-21T10:15:09.946Z,17.87
2017-08-21T10:16:19.530Z,17.99
2017-08-21T10:17:28.421Z,17.99
2017-08-21T10:18:37.628Z,17.96
2017-08-21T10:19:46.846Z,17.96
2017-08-21T10:20:56.485Z,17.9
2017-08-21T10:22:06.022Z,17.81
2017-08-21T10:23:16.207Z,17.95
2017-08-21T10:24:25.740Z,17.79
2017-08-21T10:25:35.273Z,17.97
2017-08-21T10:26:45.706Z,17.9
2017-08-21T10:27:55.887Z,17.95
2017-08-21T10:29:05.416Z,17.97
2017-08-21T10:30:14.946Z,18
2017-08-21T10:31:24.481Z,18.08
2017-08-21T10:32:34.125Z,18.23
2017-08-21T10:33:43.659Z,18
2017-08-21T10:34:53.190Z,17.99
2017-08-21T10:36:02.404Z,18
2017-08-21T10:37:11.942Z,18.07
2017-08-21T10:38:21.253Z,18.27
2017-08-21T10:39:30.464Z,18.14
2017-08-21T10:40:39.689Z,18.32
2017-08-21T10:41:48.589Z,18.26
2017-08-21T10:42:58.123Z,18.35
2017-08-21T10:44:07.009Z,18.35
2017-08-21T10:45:16.866Z,18.32
2017-08-21T10:46:26.402Z,18.39
2017-08-21T10:47:35.940Z,18.51
2017-08-21T10:48:45.796Z,18.55
2017-08-21T10:49:55.338Z,18.45
2017-08-21T10:51:05.200Z,18.44
2017-08-21T10:52:14.413Z,18.29
2017-08-21T10:53:24.273Z,18.37
2017-08-21T10:54:33.814Z,18.18
2017-08-21T10:55:43.650Z,18.14
2017-08-21T10:56:53.192Z,18.15
2017-08-21T10:58:02.723Z,18.07
2017-08-21T10:59:12.253Z,17.97
2017-08-21T11:00:21.786Z,17.93
2017-08-21T11:01:31.474Z,17.71
2017-08-21T11:02:41.657Z,17.68
2017-08-21T11:03:51.848Z,17.51
2017-08-21T11:05:01.072Z,17.4
2017-08-21T11:06:10.606Z,17.43
2017-08-21T11:07:19.816Z,17.36
2017-08-21T11:08:29.680Z,17.34
2017-08-21T11:09:39.859Z,17.31
2017-08-21T11:10:49.072Z,17.33
2017-08-21T11:11:58.927Z,17.31
2017-08-21T11:13:09.161Z,17.41
2017-08-21T11:14:18.699Z,17.43
2017-08-21T11:15:28.237Z,17.49
2017-08-21T11:16:37.449Z,17.55
2017-08-21T11:17:47.079Z,17.64
2017-08-21T11:18:55.963Z,17.74
2017-08-21T11:20:05.510Z,17.77
2017-08-21T11:21:14.724Z,17.89
2017-08-21T11:22:23.935Z,17.95
2017-08-21T11:23:33.481Z,17.93
2017-08-21T11:24:43.001Z,18.1
2017-08-21T11:25:52.210Z,18.03
2017-08-21T11:27:01.422Z,18.14
2017-08-21T11:28:11.275Z,18.18
2017-08-21T11:29:20.815Z,18.15
2017-08-21T11:30:30.231Z,18.27
2017-08-21T11:31:39.493Z,18.18
2017-08-21T11:32:48.702Z,18.3
2017-08-21T11:33:57.917Z,18.3
2017-08-21T11:35:08.105Z,18.41
2017-08-21T11:36:17.467Z,18.37
2017-08-21T11:37:27.322Z,18.48
2017-08-21T11:38:36.213Z,18.54
2017-08-21T11:39:45.425Z,18.7
2017-08-21T11:40:54.956Z,18.62
2017-08-21T11:42:05.136Z,18.57
2017-08-21T11:43:14.351Z,18.6
2017-08-21T11:44:23.889Z,18.6
2017-08-21T11:45:33.423Z,18.62
2017-08-21T11:46:42.636Z,18.7
2017-08-21T11:47:51.897Z,18.67
2017-08-21T11:49:00.785Z,18.54
2017-08-21T11:50:10.646Z,18.54
2017-08-21T11:51:20.199Z,18.57
2017-08-21T11:52:30.062Z,18.58
2017-08-21T11:53:40.292Z,18.66
2017-08-21T11:54:50.162Z,18.65
2017-08-21T11:55:59.401Z,18.75
2017-08-21T11:57:08.943Z,18.85
2017-08-21T11:58:18.819Z,18.78
2017-08-21T11:59:28.033Z,18.66
2017-08-21T12:00:37.590Z,18.58
2017-08-21T12:01:46.817Z,18.52
2017-08-21T12:02:56.674Z,18.33
2017-08-21T12:04:05.887Z,18.29
2017-08-21T12:05:15.731Z,18.26
2017-08-21T12:06:25.263Z,18.17
2017-08-21T12:07:35.121Z,18.23
2017-08-21T12:08:44.659Z,18.07
2017-08-21T12:09:54.535Z,18.07
2017-08-21T12:11:04.568Z,17.95
2017-08-21T12:12:14.750Z,17.84
2017-08-21T12:13:24.943Z,17.79
2017-08-21T12:14:34.505Z,17.71
2017-08-21T12:15:44.359Z,17.9
2017-08-21T12:16:53.396Z,17.78
2017-08-21T12:18:02.929Z,17.75
2017-08-21T12:19:13.108Z,17.72
2017-08-21T12:20:23.015Z,17.74
2017-08-21T12:21:32.234Z,17.81
2017-08-21T12:22:42.422Z,17.9
2017-08-21T12:23:51.960Z,17.96
2017-08-21T12:25:01.548Z,17.9
2017-08-21T12:26:11.408Z,17.96
2017-08-21T12:27:20.615Z,18.08
2017-08-21T12:28:30.400Z,18.11
2017-08-21T12:29:39.606Z,18.12
2017-08-21T12:30:49.461Z,18.14
2017-08-21T12:31:58.675Z,18.17
2017-08-21T12:33:08.208Z,18.15
2017-08-21T12:34:17.417Z,18.26
2017-08-21T12:35:27.273Z,18.23
2017-08-21T12:36:36.488Z,18.15
2017-08-21T12:37:46.026Z,18.29
2017-08-21T12:38:55.902Z,18.3
2017-08-21T12:40:04.793Z,18.37
2017-08-21T12:41:14.363Z,18.48
2017-08-21T12:42:23.906Z,18.5
2017-08-21T12:43:33.766Z,18.6
2017-08-21T12:44:42.975Z,18.65
2017-08-21T12:45:52.351Z,18.69
2017-08-21T12:47:01.926Z,18.75
2017-08-21T12:48:11.467Z,18.87
2017-08-21T12:49:21.372Z,18.99
2017-08-21T12:50:30.255Z,18.95
2017-08-21T12:51:40.094Z,18.95
2017-08-21T12:52:49.954Z,18.95
2017-08-21T12:53:58.849Z,18.99
2017-08-21T12:55:08.382Z,18.94
2017-08-21T12:56:17.913Z,18.92
2017-08-21T12:57:27.123Z,19.19
2017-08-21T12:58:36.661Z,19.25
2017-08-21T12:59:45.888Z,19.29
2017-08-21T13:00:55.420Z,19.37
2017-08-21T13:02:04.652Z,19.58
2017-08-21T13:03:14.285Z,19.47
2017-08-21T13:04:24.141Z,19.55
2017-08-21T13:05:33.393Z,19.54
2017-08-21T13:06:42.601Z,19.58
2017-08-21T13:07:52.463Z,19.48
2017-08-21T13:09:01.723Z,19.58
2017-08-21T13:10:11.583Z,19.59
2017-08-21T13:11:21.129Z,19.73
2017-08-21T13:12:30.991Z,19.78
2017-08-21T13:13:40.549Z,19.81
2017-08-21T13:14:49.917Z,19.76
2017-08-21T13:15:59.459Z,19.71
2017-08-21T13:17:08.995Z,19.86
2017-08-21T13:18:18.866Z,19.8
2017-08-21T13:19:27.754Z,19.73
2017-08-21T13:20:38.346Z,19.65
2017-08-21T13:21:47.234Z,19.68
2017-08-21T13:22:56.771Z,19.55
2017-08-21T13:24:05.982Z,19.44
2017-08-21T13:25:16.173Z,19.31
2017-08-21T13:26:26.629Z,19.28
2017-08-21T13:27:36.168Z,19.04
2017-08-21T13:28:45.381Z,19.07
2017-08-21T13:29:54.270Z,18.99
2017-08-21T13:31:03.488Z,18.9
2017-08-21T13:32:13.447Z,18.92
2017-08-21T13:33:22.362Z,18.84
2017-08-21T13:34:31.570Z,18.84
2017-08-21T13:35:41.428Z,18.8
2017-08-21T13:36:50.963Z,18.88
2017-08-21T13:38:00.427Z,18.88
2017-08-21T13:39:10.629Z,18.99
2017-08-21T13:40:20.818Z,18.98
2017-08-21T13:41:30.028Z,19.1
2017-08-21T13:42:39.897Z,19.1
2017-08-21T13:43:49.108Z,19.07
2017-08-21T13:44:58.320Z,19.16
2017-08-21T13:46:08.307Z,19.23
2017-08-21T13:47:18.182Z,19.39
2017-08-21T13:48:27.723Z,19.55
2017-08-21T13:49:37.038Z,19.68
2017-08-21T13:50:46.892Z,19.87
2017-08-21T13:51:56.102Z,19.94
2017-08-21T13:53:05.963Z,20.03
2017-08-21T13:54:15.825Z,19.95
2017-08-21T13:55:25.457Z,19.96
2017-08-21T13:56:34.997Z,20.06
2017-08-21T13:57:44.212Z,19.91
2017-08-21T13:58:53.758Z,19.94
2017-08-21T14:00:03.296Z,19.91
2017-08-21T14:01:13.642Z,19.74
2017-08-21T14:02:23.180Z,19.66
2017-08-21T14:03:32.715Z,19.71
2017-08-21T14:04:42.259Z,19.65
2017-08-21T14:05:51.467Z,19.58
2017-08-21T14:07:01.652Z,19.54
2017-08-21T14:08:11.513Z,19.56
2017-08-21T14:09:21.701Z,19.55
2017-08-21T14:10:30.918Z,19.44
2017-08-21T14:11:40.139Z,19.44
2017-08-21T14:12:49.332Z,19.43
2017-08-21T14:13:58.570Z,19.41
2017-08-21T14:15:08.121Z,19.43
2017-08-21T14:16:17.997Z,19.41
2017-08-21T14:17:27.263Z,19.39
2017-08-21T14:18:37.223Z,19.43
2017-08-21T14:19:46.436Z,19.37
2017-08-21T14:20:55.655Z,19.37
2017-08-21T14:22:05.195Z,19.47
2017-08-21T14:23:14.428Z,19.47
2017-08-21T14:24:24.060Z,19.4
2017-08-21T14:25:32.948Z,19.5
2017-08-21T14:26:42.170Z,19.5
2017-08-21T14:27:51.712Z,19.47
2017-08-21T14:29:01.574Z,19.43
2017-08-21T14:30:11.260Z,19.48
2017-08-21T14:31:20.153Z,19.43
2017-08-21T14:32:30.014Z,19.4
2017-08-21T14:33:39.223Z,19.47
2017-08-21T14:34:48.760Z,19.39
2017-08-21T14:35:58.342Z,19.37
2017-08-21T14:37:07.557Z,19.47
2017-08-21T14:38:17.426Z,19.54
2017-08-21T14:39:26.680Z,19.51
2017-08-21T14:40:35.899Z,19.44
2017-08-21T14:41:44.836Z,19.5
2017-08-21T14:42:54.707Z,19.56
2017-08-21T14:44:04.257Z,19.54
2017-08-21T14:45:13.141Z,19.44
2017-08-21T14:46:22.027Z,19.46
2017-08-21T14:47:31.019Z,19.39
2017-08-21T14:48:40.778Z,19.37
2017-08-21T14:49:50.665Z,19.41
2017-08-21T14:50:59.928Z,19.31
2017-08-21T14:52:09.464Z,19.32
2017-08-21T14:53:19.006Z,19.21
2017-08-21T14:54:28.550Z,19.04
2017-08-21T14:55:37.768Z,19.04
2017-08-21T14:56:47.329Z,19.11
2017-08-21T14:57:56.540Z,19.1